Latest Weather Observations for Charles Point

IDD60801

Issued at 2:31 pm CST Saturday 31 October 2020 (issued every 10 minutes, with the page automatically refreshed every 10 minutes)

About weather observations | Map of weather stations | Latest weather observations for NT | Other Formats
Station Details ID: 014031 Name: CHARLES POINT Lat: -12.39 Lon: 130.63 Height: 14.0 m
Data from the previous 72 hours. | See also: Recent months for locations in Northern Territory
Date/Time
CST
Temp
°C
App
Temp
°C
Dew
Point
°C
Rel
Hum
%
Delta-T
°C
Wind Press
QNH
hPa
Press
MSL
hPa
Rain since
9am
mm
Dir  Spd
km/h
Gust
km/h
Spd
kts
Gust
kts
31/02:30pm 33.0 36.4 24.7 61 5.9 WNW 15 20 8 11 1007.3 1007.1 0.0
31/02:00pm 32.9 37.0 25.7 66 5.1 WNW 15 22 8 12 1007.8 1007.6 0.0
31/01:30pm 32.8 36.5 25.1 64 5.5 WNW 15 26 8 14 1008.2 1008.0 0.0
31/01:00pm 32.5 36.3 25.3 66 5.1 WNW 15 22 8 12 1008.6 1008.4 0.0
31/12:30pm 32.4 36.0 25.0 65 5.2 WNW 15 22 8 12 1009.2 1009.0 0.0
31/12:00pm 32.7 36.8 25.8 67 4.9 WNW 15 20 8 11 1009.6 1009.4 0.0
31/11:30am 32.4 36.1 25.2 66 5.1 WNW 15 20 8 11 1010.2 1010.1 0.0
31/11:00am 32.0 35.7 25.1 67 4.9 WNW 15 22 8 12 1010.4 1010.3 0.0
31/10:30am 31.7 36.5 25.1 68 4.7 W 9 19 5 10 1010.8 1010.7 0.0
31/10:00am 30.8 35.4 24.7 70 4.3 W 9 15 5 8 1011.1 1011.0 0.0
31/09:30am 31.2 36.7 25.3 71 4.2 WSW 6 9 3 5 1011.2 1011.1 0.0
31/09:00am 30.9 35.9 24.8 70 4.3 W 7 11 4 6 1010.7 1010.6 0.0
31/08:30am 31.4 37.4 25.5 71 4.2 S 4 13 2 7 1010.5 1010.4 0.0
31/08:00am 30.0 35.4 25.5 77 3.2 S 7 9 4 5 1010.3 1010.2 0.0
31/07:30am 28.2 33.8 24.8 82 2.4 SSE 4 7 2 4 1010.1 1010.0 0.0
31/07:00am 27.4 32.4 24.5 84 2.0 SSE 6 7 3 4 1009.8 1009.6 0.0
31/06:30am 27.7 33.4 23.7 79 2.8 CALM 0 2 0 1 1009.4 1009.2 0.0
31/06:00am 28.3 33.4 24.1 78 2.9 SW 4 6 2 3 1009.2 1009.0 0.0
31/05:30am 28.2 33.3 24.0 78 2.9 SW 4 6 2 3 1009.1 1008.9 0.0
31/05:00am 28.1 33.2 24.1 79 2.8 SW 4 9 2 5 1008.8 1008.6 0.0
31/04:30am 28.1 33.1 23.9 78 2.9 SW 4 7 2 4 1008.5 1008.3 0.0
31/04:00am 28.1 33.2 24.1 79 2.8 SW 4 9 2 5 1008.4 1008.2 0.0
31/03:30am 28.1 33.1 23.9 78 2.9 SW 4 6 2 3 1008.3 1008.1 0.0
31/03:00am 28.6 33.6 23.9 75 3.3 SW 4 9 2 5 1008.5 1008.3 0.0
31/02:30am 28.8 33.5 23.9 75 3.4 WSW 6 9 3 5 1008.6 1008.4 0.0
31/02:00am 29.0 33.7 23.9 74 3.5 WSW 6 9 3 5 1008.9 1008.7 0.0
31/01:30am 29.2 34.0 24.1 74 3.5 W 6 11 3 6 1009.1 1008.9 0.0
31/01:00am 29.4 33.9 24.0 72 3.7 W 7 15 4 8 1009.2 1009.0 0.0
31/12:30am 29.4 33.0 23.8 72 3.9 W 11 17 6 9 1009.0 1008.8 0.0
31/12:00am 29.7 32.7 23.4 69 4.3 W 13 20 7 11 1009.2 1009.0 0.0
 
Date/Time
CST
Temp
°C
App
Temp
°C
Dew
Point
°C
Rel
Hum
%
Delta-T
°C
Wind Press
QNH
hPa
Press
MSL
hPa
Rain since
9am
mm
Dir  Spd
km/h
Gust
km/h
Spd
kts
Gust
kts
30/11:30pm 29.6 32.9 23.8 71 4.0 W 13 19 7 10 1009.5 1009.3 0.0
30/11:00pm 29.6 33.4 24.0 72 3.9 W 11 17 6 9 1009.8 1009.6 0.0
30/10:30pm 29.7 34.1 23.4 69 4.3 W 6 11 3 6 1010.1 1010.0 0.0
30/10:00pm 29.6 34.0 23.5 69 4.2 WSW 6 9 3 5 1010.0 1009.9 0.0
30/09:30pm 29.6 33.7 23.3 69 4.3 W 7 11 4 6 1009.9 1009.7 0.0
30/09:00pm 29.4 33.1 22.6 67 4.6 SW 7 13 4 7 1009.5 1009.3 0.0
30/08:30pm 29.4 33.2 22.4 66 4.8 SW 6 9 3 5 1009.1 1008.9 0.0
30/08:00pm 29.5 33.5 22.0 64 5.1 SW 4 9 2 5 1008.8 1008.6 0.0
30/07:30pm 29.7 33.4 22.2 64 5.1 WSW 6 9 3 5 1008.5 1008.3 0.0
30/07:00pm 30.1 33.8 22.3 63 5.3 W 6 11 3 6 1008.3 1008.1 0.0
30/06:30pm 30.5 34.0 22.1 61 5.7 WSW 7 11 4 6 1008.2 1008.0 0.0
30/06:00pm 31.3 34.6 22.6 60 6.0 WSW 9 20 5 11 1008.0 1007.8 0.0
30/05:30pm 31.9 35.6 23.2 60 6.0 WSW 9 22 5 12 1007.9 1007.7 0.0
30/05:00pm 31.8 34.5 22.8 59 6.2 W 13 22 7 12 1007.7 1007.5 0.0
30/04:30pm 32.0 35.3 23.8 62 5.7 W 13 22 7 12 1007.4 1007.2 0.0
30/04:00pm 31.8 33.8 23.6 62 5.7 WNW 19 26 10 14 1007.4 1007.2 0.0
30/03:30pm 31.6 34.0 23.7 63 5.5 WNW 17 24 9 13 1007.8 1007.6 0.0
30/03:00pm 31.9 34.9 24.7 65 5.1 WNW 17 24 9 13 1008.2 1008.0 0.0
30/02:30pm 32.1 35.0 24.4 63 5.4 WNW 17 22 9 12 1008.6 1008.4 0.0
30/02:00pm 31.8 35.3 24.9 67 4.9 WNW 15 22 8 12 1009.3 1009.1 0.0
30/01:30pm 31.4 34.9 24.8 68 4.6 WNW 15 20 8 11 1009.8 1009.6 0.0
30/01:00pm 31.6 35.3 25.2 69 4.5 WNW 15 22 8 12 1010.4 1010.3 0.0
30/12:30pm 31.5 35.4 24.9 68 4.7 NW 13 19 7 10 1010.7 1010.6 0.0
30/12:00pm 31.3 35.3 24.4 66 4.8 NW 11 17 6 9 1011.2 1011.1 0.0
30/11:30am 31.8 35.6 24.1 63 5.4 NW 11 19 6 10 1011.6 1011.5 0.0
30/11:00am 31.5 35.2 23.3 61 5.7 WNW 9 15 5 8 1012.0 1011.9 0.0
30/10:30am 31.0 35.2 24.1 66 4.8 NW 9 15 5 8 1012.2 1012.1 0.0
30/10:00am 30.4 34.6 23.1 65 5.0 N 6 6 3 3 1012.3 1012.2 0.0
30/09:30am 30.4 35.9 24.1 69 4.4 W 2 6 1 3 1012.5 1012.4 0.0
30/09:00am 30.1 35.4 24.9 73 3.7 SW 6 9 3 5 1012.6 1012.5 0.0
30/08:30am 29.2 35.0 25.2 79 2.8 SSW 4 6 2 3 1012.3 1012.2 0.0
30/08:00am 28.4 33.5 24.6 80 2.6 SSW 6 9 3 5 1012.3 1012.2 0.0
30/07:30am 27.3 32.2 24.4 84 2.0 SSW 6 9 3 5 1012.2 1012.1 0.0
30/07:00am 26.0 31.3 24.4 91 1.1 S 4 6 2 3 1011.8 1011.7 0.0
30/06:30am 24.9 29.4 23.7 93 0.8 S 6 6 3 3 1011.6 1011.5 0.0
30/06:00am 24.8 29.0 23.2 91 1.1 SSW 6 7 3 4 1011.3 1011.2 0.0
30/05:30am 25.0 29.4 23.4 91 1.1 S 6 7 3 4 1010.7 1010.6 0.0
30/05:00am 25.3 29.7 23.4 89 1.3 S 6 7 3 4 1010.6 1010.5 0.0
30/04:30am 25.5 29.2 23.2 87 1.6 SSW 9 13 5 7 1010.2 1010.1 0.0
30/04:00am 26.6 31.9 25.0 91 1.1 SSW 6 9 3 5 1010.3 1010.2 0.0
30/03:30am 29.1 34.3 25.1 79 2.8 NNW 7 11 4 6 1010.0 1009.9 0.0
30/03:00am 29.1 34.0 25.3 80 2.7 N 9 13 5 7 1010.2 1010.1 0.0
30/02:30am 29.1 33.2 25.7 82 2.4 N 15 20 8 11 1010.3 1010.2 0.0
30/02:00am 29.2 33.1 26.0 83 2.3 N 17 22 9 12 1010.5 1010.4 0.0
30/01:30am 29.5 33.9 25.0 77 3.2 NNW 11 15 6 8 1010.7 1010.6 0.0
30/01:00am 29.3 34.4 25.5 80 2.7 WNW 9 13 5 7 1010.9 1010.8 0.0
30/12:30am 28.9 34.2 24.9 79 2.8 WNW 6 11 3 6 1011.0 1010.9 0.0
30/12:00am 29.2 34.5 25.0 78 2.9 WNW 6 11 3 6 1011.4 1011.3 0.0
 
Date/Time
CST
Temp
°C
App
Temp
°C
Dew
Point
°C
Rel
Hum
%
Delta-T
°C
Wind Press
QNH
hPa
Press
MSL
hPa
Rain since
9am
mm
Dir  Spd
km/h
Gust
km/h
Spd
kts
Gust
kts
29/11:30pm 29.6 33.9 24.9 76 3.3 NW 11 13 6 7 1011.5 1011.4 0.0
29/11:00pm 29.7 34.1 25.0 76 3.3 WNW 11 17 6 9 1011.5 1011.4 0.0
29/10:30pm 29.7 33.9 24.8 75 3.4 WNW 11 15 6 8 1011.4 1011.3 0.0
29/10:00pm 29.9 34.0 24.5 73 3.8 WNW 11 15 6 8 1011.1 1011.0 0.0
29/09:30pm 29.7 34.6 24.6 74 3.6 W 7 15 4 8 1010.8 1010.7 0.0
29/09:00pm 29.4 34.3 24.3 74 3.6 W 6 9 3 5 1010.6 1010.5 0.0
29/08:30pm 29.3 34.4 24.0 73 3.7 WSW 4 9 2 5 1010.4 1010.3 0.0
29/08:00pm 29.1 34.3 24.2 75 3.4 WSW 4 7 2 4 1010.2 1010.1 0.0
29/07:30pm 29.4 34.5 24.0 72 3.7 SW 4 7 2 4 1010.0 1009.9 0.0
29/07:00pm 29.8 34.9 24.0 71 4.0 W 4 6 2 3 1009.9 1009.7 0.0
29/06:30pm 30.4 35.1 24.3 70 4.3 W 7 11 4 6 1009.5 1009.3 0.0
29/06:00pm 31.0 35.6 24.1 66 4.8 W 7 13 4 7 1009.3 1009.1 0.0
29/05:30pm 31.6 36.0 25.0 68 4.7 WNW 11 19 6 10 1009.1 1008.9 0.0
29/05:00pm 31.8 35.6 24.7 66 5.0 WNW 13 17 7 9 1009.1 1008.9 0.0
29/04:30pm 31.9 35.7 24.7 65 5.1 NW 13 17 7 9 1009.0 1008.8 0.0
29/04:00pm 31.8 35.0 24.4 65 5.2 WNW 15 20 8 11 1008.9 1008.7 0.0
29/03:30pm 32.1 35.5 24.7 65 5.2 WNW 15 22 8 12 1009.1 1008.9 0.0
29/03:00pm 32.0 35.0 24.6 65 5.2 WNW 17 22 9 12 1009.5 1009.3 0.0
29/02:30pm 31.9 35.6 24.5 65 5.2 NW 13 19 7 10 1009.9 1009.7 0.0
29/02:00pm 32.0 35.6 24.3 63 5.4 NW 13 17 7 9 1010.5 1010.4 0.0
29/01:30pm 31.6 35.6 25.0 68 4.7 NW 13 19 7 10 1011.2 1011.1 0.0
29/01:00pm 31.3 35.4 25.2 70 4.3 NW 13 17 7 9 1011.7 1011.6 0.0
29/12:30pm 31.3 35.3 24.4 66 4.8 NW 11 19 6 10 1012.2 1012.1 0.0
29/12:00pm 31.7 36.4 24.3 65 5.2 NNW 7 11 4 6 1012.6 1012.5 0.0
29/11:30am 31.2 35.8 24.8 69 4.5 NE 9 15 5 8 1013.0 1012.9 0.0
29/11:00am 30.7 35.2 24.6 70 4.3 NE 9 11 5 6 1013.4 1013.3 0.0
29/10:30am 30.3 34.9 24.7 72 3.9 NE 9 13 5 7 1013.6 1013.5 0.0
29/10:00am 30.2 35.0 24.4 71 4.0 ENE 7 11 4 6 1013.7 1013.6 0.0
29/09:30am 29.7 34.6 24.3 73 3.8 ENE 6 9 3 5 1013.9 1013.8 0.0
29/09:00am 29.5 34.4 24.6 75 3.4 ENE 7 13 4 7 1014.0 1013.9 1.2
29/08:30am 28.4 33.2 24.4 79 2.8 ESE 7 13 4 7 1013.9 1013.8 1.2
29/08:00am 27.8 32.6 24.4 82 2.4 SE 7 11 4 6 1013.6 1013.5 1.2
29/07:30am 27.8 32.6 24.4 82 2.4 SE 7 11 4 6 1013.2 1013.1 1.2
29/07:00am 26.6 31.6 24.8 90 1.3 ESE 7 9 4 5 1012.8 1012.7 1.2
29/06:30am 25.4 30.2 24.5 95 0.6 SE 7 9 4 5 1012.5 1012.4 1.2
29/06:00am 24.9 29.6 24.0 95 0.6 SE 6 7 3 4 1012.3 1012.2 1.2
29/05:30am 25.2 30.1 23.6 91 1.1 SE 4 6 2 3 1012.2 1012.1 1.2
29/05:00am 26.3 30.7 23.8 86 1.7 ESE 7 11 4 6 1012.1 1012.0 1.2
29/04:30am 26.4 30.9 23.9 86 1.7 ESE 7 11 4 6 1011.9 1011.8 1.2
29/04:00am 26.7 31.1 24.4 87 1.6 ESE 9 13 5 7 1011.7 1011.6 1.2
29/03:30am 26.7 31.1 25.1 91 1.1 ESE 11 17 6 9 1011.7 1011.6 1.2
29/03:00am 26.4 31.5 25.0 92 1.0 ESE 7 11 4 6 1011.6 1011.5 1.2
29/02:30am 27.0 33.0 26.3 96 0.5 E 7 13 4 7 1011.5 1011.4 1.2
29/02:00am 25.9 30.8 24.7 93 0.8 ESE 7 11 4 6 1011.4 1011.3 1.2
29/01:30am 25.4 30.5 24.7 96 0.5 SE 6 7 3 4 1011.6 1011.5 1.2
29/01:00am 25.4 31.2 24.5 95 0.6 SSE 2 6 1 3 1011.8 1011.7 1.2
29/12:30am 25.3 29.6 24.3 94 0.7 SSE 9 13 5 7 1012.7 1012.6 1.2
29/12:00am 25.9 30.8 24.3 91 1.1 S 6 9 3 5 1012.8 1012.7 1.2
 
Date/Time
CST
Temp
°C
App
Temp
°C
Dew
Point
°C
Rel
Hum
%
Delta-T
°C
Wind Press
QNH
hPa
Press
MSL
hPa
Rain since
9am
mm
Dir  Spd
km/h
Gust
km/h
Spd
kts
Gust
kts
28/11:30pm 26.6 31.3 24.3 87 1.6 S 7 9 4 5 1012.7 1012.6 1.2
28/11:00pm 28.5 33.1 24.1 77 3.0 NW 7 13 4 7 1012.4 1012.3 1.2
28/10:30pm 28.6 31.7 24.2 77 3.1 NNW 15 19 8 10 1012.6 1012.5 1.2
28/10:00pm 27.9 30.1 23.9 79 2.8 N 19 26 10 14 1012.6 1012.5 1.2
28/09:30pm 27.1 31.0 24.9 88 1.5 NE 13 19 7 10 1013.2 1013.1 1.2
28/09:00pm 27.1 31.4 23.3 80 2.6 E 6 13 3 7 1013.2 1013.1 1.2
28/08:30pm 26.7 29.8 22.8 79 2.6 ESE 11 17 6 9 1012.8 1012.7 1.2
28/08:00pm 27.3 31.2 24.2 83 2.1 ESE 11 20 6 11 1012.5 1012.4 1.2
28/07:30pm 27.7 33.2 24.7 84 2.1 SSW 4 13 2 7 1012.1 1012.0 1.2
28/07:00pm 28.6 34.4 24.6 79 2.8 W 2 6 1 3 1011.1 1011.0 1.2
28/06:30pm 29.2 34.6 24.5 76 3.3 WSW 4 7 2 4 1010.7 1010.6 1.2
28/06:00pm 29.6 33.7 24.0 72 3.9 WNW 9 13 5 7 1009.7 1009.5 1.2
28/05:30pm 29.8 33.7 22.5 65 5.0 NW 6 9 3 5 1009.3 1009.1 1.2
28/05:00pm 28.3 32.7 23.4 75 3.4 NE 6 11 3 6 1009.7 1009.5 1.2
28/04:30pm 25.8 30.1 24.9 95 0.6 ESE 11 30 6 16 1010.8 1010.7 1.0
28/04:00pm 24.9 24.2 20.2 75 3.1 SE 24 46 13 25 1011.6 1011.5 0.0
28/03:56pm 26.3 26.7 19.9 68 4.2 SSE 17 41 9 22 1011.6 1011.5 0.0
28/03:30pm 31.8 35.3 25.4 69 4.5 WNW 17 26 9 14 1010.5 1010.4 0.0
28/03:00pm 32.2 36.2 25.0 65 5.1 NW 13 20 7 11 1009.9 1009.7 0.0

Other formats

Comma delimited format used in spreadsheet applications
http://www.bom.gov.au/fwo/IDD60801/IDD60801.99510.axf

JavaScript Object Notation format (JSON) in row-major order
http://www.bom.gov.au/fwo/IDD60801/IDD60801.99510.json

Data quality

Most of these data are generated automatically and are frequently updated. Quality checks on data are not normally performed. It is possible for incorrect values to appear. Refer to information at About Latest Weather Observations and please check the disclaimer before using these data.